Peshawar, Pakistan
Current Conditions -  °F | °C
As of 8:00 PM on Monday 24 Nov 2014 (Local Time) from OPPS Reporting Station
Haze Haze  
Wind Chill: 57°   Ceiling: Unl
Heat Index: 57°   Visibility: 1.5mi
Dew Point: 45°   Wind: 0mph
Humidity: 63%   Direction: NA
Pressure: NA   Gusts: NA
Location:  34.01°N, 71.54°E
Report Text: OPPS 241500Z 00000KT 2500 HZ FEW100 SCT250 14/07 Q1016.6
Loading
Personal Weather Stations






























Interactive Weather Map New forecast layout! Learn more

10-Day Weather Forecast

Advertisements
Track Severe Weather on mobile